sensor_id;sensor_type;location;lat;lon;timestamp;temperature;humidity
3053;DHT22;1536;51.098;6.414;2023-05-03T00:00:04;10.40;99.00
3053;DHT22;1536;51.098;6.414;2023-05-03T00:02:32;10.40;99.00
3053;DHT22;1536;51.098;6.414;2023-05-03T00:04:59;10.40;99.10
3053;DHT22;1536;51.098;6.414;2023-05-03T00:07:27;10.40;99.30
3053;DHT22;1536;51.098;6.414;2023-05-03T00:09:54;10.30;99.40
3053;DHT22;1536;51.098;6.414;2023-05-03T00:12:21;10.30;99.90
3053;DHT22;1536;51.098;6.414;2023-05-03T00:14:47;10.30;99.70
3053;DHT22;1536;51.098;6.414;2023-05-03T00:17:14;10.30;99.80
3053;DHT22;1536;51.098;6.414;2023-05-03T00:19:41;10.30;99.90
3053;DHT22;1536;51.098;6.414;2023-05-03T00:22:08;10.30;99.90
3053;DHT22;1536;51.098;6.414;2023-05-03T00:24:36;10.10;99.90
3053;DHT22;1536;51.098;6.414;2023-05-03T00:27:03;10.10;99.90
3053;DHT22;1536;51.098;6.414;2023-05-03T00:29:30;10.00;99.90
3053;DHT22;1536;51.098;6.414;2023-05-03T00:31:56;9.90;99.90
3053;DHT22;1536;51.098;6.414;2023-05-03T00:34:24;9.80;99.90
3053;DHT22;1536;51.098;6.414;2023-05-03T00:36:51;9.80;99.90
3053;DHT22;1536;51.098;6.414;2023-05-03T00:39:17;9.70;99.90
3053;DHT22;1536;51.098;6.414;2023-05-03T00:41:46;9.60;99.90
3053;DHT22;1536;51.098;6.414;2023-05-03T00:44:12;9.60;99.90
3053;DHT22;1536;51.098;6.414;2023-05-03T00:46:39;9.50;99.90
3053;DHT22;1536;51.098;6.414;2023-05-03T00:49:06;9.40;99.90
3053;DHT22;1536;51.098;6.414;2023-05-03T00:51:33;9.30;99.90
3053;DHT22;1536;51.098;6.414;2023-05-03T00:54:02;9.30;99.90
3053;DHT22;1536;51.098;6.414;2023-05-03T00:56:32;9.20;99.90
3053;DHT22;1536;51.098;6.414;2023-05-03T00:59:02;9.20;99.90
3053;DHT22;1536;51.098;6.414;2023-05-03T01:01:30;9.10;99.90
3053;DHT22;1536;51.098;6.414;2023-05-03T01:03:58;9.10;99.90
3053;DHT22;1536;51.098;6.414;2023-05-03T01:06:32;9.00;99.90
3053;DHT22;1536;51.098;6.414;2023-05-03T01:09:05;9.00;99.90
3053;DHT22;1536;51.098;6.414;2023-05-03T01:11:44;9.00;99.90
3053;DHT22;1536;51.098;6.414;2023-05-03T01:14:21;8.90;99.90
3053;DHT22;1536;51.098;6.414;2023-05-03T01:16:51;8.80;99.90
3053;DHT22;1536;51.098;6.414;2023-05-03T01:19:27;8.80;99.90
3053;DHT22;1536;51.098;6.414;2023-05-03T01:21:58;8.70;99.90
3053;DHT22;1536;51.098;6.414;2023-05-03T01:24:30;8.70;99.90
3053;DHT22;1536;51.098;6.414;2023-05-03T01:26:59;8.60;99.90
3053;DHT22;1536;51.098;6.414;2023-05-03T01:29:25;8.60;99.90
3053;DHT22;1536;51.098;6.414;2023-05-03T01:31:56;8.50;99.90
3053;DHT22;1536;51.098;6.414;2023-05-03T01:34:30;8.50;99.90
3053;DHT22;1536;51.098;6.414;2023-05-03T01:36:59;8.40;99.90
3053;DHT22;1536;51.098;6.414;2023-05-03T01:39:33;8.30;99.90
3053;DHT22;1536;51.098;6.414;2023-05-03T01:42:03;8.30;99.90
3053;DHT22;1536;51.098;6.414;2023-05-03T01:44:30;8.30;99.90
3053;DHT22;1536;51.098;6.414;2023-05-03T01:46:58;8.20;99.90
3053;DHT22;1536;51.098;6.414;2023-05-03T01:49:24;8.20;99.90
3053;DHT22;1536;51.098;6.414;2023-05-03T01:51:51;8.30;99.90
3053;DHT22;1536;51.098;6.414;2023-05-03T01:54:18;8.30;99.90
3053;DHT22;1536;51.098;6.414;2023-05-03T01:56:45;8.30;99.90
3053;DHT22;1536;51.098;6.414;2023-05-03T01:59:13;8.30;99.90
3053;DHT22;1536;51.098;6.414;2023-05-03T02:01:40;8.30;99.90
3053;DHT22;1536;51.098;6.414;2023-05-03T02:04:07;8.20;99.90
3053;DHT22;1536;51.098;6.414;2023-05-03T02:06:34;8.20;99.90
3053;DHT22;1536;51.098;6.414;2023-05-03T02:09:00;8.20;99.90
3053;DHT22;1536;51.098;6.414;2023-05-03T02:11:27;8.20;99.90
3053;DHT22;1536;51.098;6.414;2023-05-03T02:13:54;8.10;99.90
3053;DHT22;1536;51.098;6.414;2023-05-03T02:16:22;8.10;99.90
3053;DHT22;1536;51.098;6.414;2023-05-03T02:18:49;8.00;99.90
3053;DHT22;1536;51.098;6.414;2023-05-03T02:21:16;8.00;99.90
3053;DHT22;1536;51.098;6.414;2023-05-03T02:23:43;7.90;99.90
3053;DHT22;1536;51.098;6.414;2023-05-03T02:26:09;7.90;99.90
3053;DHT22;1536;51.098;6.414;2023-05-03T02:28:37;7.90;99.90
3053;DHT22;1536;51.098;6.414;2023-05-03T02:31:04;7.90;99.90
3053;DHT22;1536;51.098;6.414;2023-05-03T02:33:32;7.90;99.90
3053;DHT22;1536;51.098;6.414;2023-05-03T02:35:59;7.90;99.90
3053;DHT22;1536;51.098;6.414;2023-05-03T02:38:26;7.90;99.90
3053;DHT22;1536;51.098;6.414;2023-05-03T02:40:53;7.90;99.90
3053;DHT22;1536;51.098;6.414;2023-05-03T02:43:19;7.90;99.90
3053;DHT22;1536;51.098;6.414;2023-05-03T02:45:46;7.90;99.90
3053;DHT22;1536;51.098;6.414;2023-05-03T02:48:13;7.90;99.90
3053;DHT22;1536;51.098;6.414;2023-05-03T02:50:42;7.80;99.90
3053;DHT22;1536;51.098;6.414;2023-05-03T02:53:08;7.80;99.90
3053;DHT22;1536;51.098;6.414;2023-05-03T02:55:36;7.80;99.90
3053;DHT22;1536;51.098;6.414;2023-05-03T02:58:02;7.80;99.90
3053;DHT22;1536;51.098;6.414;2023-05-03T03:00:29;7.80;99.90
3053;DHT22;1536;51.098;6.414;2023-05-03T03:02:56;7.80;99.90
3053;DHT22;1536;51.098;6.414;2023-05-03T03:05:24;7.80;99.90
3053;DHT22;1536;51.098;6.414;2023-05-03T03:07:53;7.80;99.90
3053;DHT22;1536;51.098;6.414;2023-05-03T03:10:20;7.90;99.90
3053;DHT22;1536;51.098;6.414;2023-05-03T03:12:46;7.90;99.90
3053;DHT22;1536;51.098;6.414;2023-05-03T03:15:13;7.90;99.90
3053;DHT22;1536;51.098;6.414;2023-05-03T03:17:40;8.00;99.90
3053;DHT22;1536;51.098;6.414;2023-05-03T03:20:08;8.00;99.90
3053;DHT22;1536;51.098;6.414;2023-05-03T03:22:37;8.10;99.90
3053;DHT22;1536;51.098;6.414;2023-05-03T03:25:06;8.10;99.90
3053;DHT22;1536;51.098;6.414;2023-05-03T03:27:33;8.20;99.90
3053;DHT22;1536;51.098;6.414;2023-05-03T03:30:00;8.20;99.90
3053;DHT22;1536;51.098;6.414;2023-05-03T03:32:27;8.30;99.90
3053;DHT22;1536;51.098;6.414;2023-05-03T03:34:53;8.30;99.90
3053;DHT22;1536;51.098;6.414;2023-05-03T03:37:20;8.30;99.90
3053;DHT22;1536;51.098;6.414;2023-05-03T03:39:47;8.30;99.90
3053;DHT22;1536;51.098;6.414;2023-05-03T03:42:15;8.30;99.90
3053;DHT22;1536;51.098;6.414;2023-05-03T03:44:46;8.20;99.90
3053;DHT22;1536;51.098;6.414;2023-05-03T03:47:14;8.20;99.90
3053;DHT22;1536;51.098;6.414;2023-05-03T03:49:41;8.20;99.90
3053;DHT22;1536;51.098;6.414;2023-05-03T03:52:08;8.10;99.90
3053;DHT22;1536;51.098;6.414;2023-05-03T03:54:35;8.20;99.90
3053;DHT22;1536;51.098;6.414;2023-05-03T03:57:02;8.20;99.90
3053;DHT22;1536;51.098;6.414;2023-05-03T03:59:30;8.20;99.90
3053;DHT22;1536;51.098;6.414;2023-05-03T04:01:57;8.30;99.90
3053;DHT22;1536;51.098;6.414;2023-05-03T04:04:24;8.30;99.90
3053;DHT22;1536;51.098;6.414;2023-05-03T04:06:50;8.30;99.90
3053;DHT22;1536;51.098;6.414;2023-05-03T04:09:17;8.30;99.90
3053;DHT22;1536;51.098;6.414;2023-05-03T04:11:44;8.30;99.90
3053;DHT22;1536;51.098;6.414;2023-05-03T04:14:11;8.20;99.90
3053;DHT22;1536;51.098;6.414;2023-05-03T04:16:39;8.10;99.90
3053;DHT22;1536;51.098;6.414;2023-05-03T04:19:06;8.00;99.90
3053;DHT22;1536;51.098;6.414;2023-05-03T04:21:33;8.00;99.90
3053;DHT22;1536;51.098;6.414;2023-05-03T04:23:59;8.00;99.90
3053;DHT22;1536;51.098;6.414;2023-05-03T04:26:30;7.90;99.90
3053;DHT22;1536;51.098;6.414;2023-05-03T04:28:57;7.90;99.90
3053;DHT22;1536;51.098;6.414;2023-05-03T04:31:24;7.90;99.90
3053;DHT22;1536;51.098;6.414;2023-05-03T04:33:52;7.80;99.90
3053;DHT22;1536;51.098;6.414;2023-05-03T04:36:19;7.80;99.90
3053;DHT22;1536;51.098;6.414;2023-05-03T04:38:50;7.70;99.90
3053;DHT22;1536;51.098;6.414;2023-05-03T04:41:17;7.70;99.90
3053;DHT22;1536;51.098;6.414;2023-05-03T04:43:44;7.70;99.90
3053;DHT22;1536;51.098;6.414;2023-05-03T04:46:11;7.80;99.90
3053;DHT22;1536;51.098;6.414;2023-05-03T04:48:39;7.80;99.90
3053;DHT22;1536;51.098;6.414;2023-05-03T04:51:07;7.80;99.90
3053;DHT22;1536;51.098;6.414;2023-05-03T04:53:34;7.90;99.90
3053;DHT22;1536;51.098;6.414;2023-05-03T04:56:00;7.90;99.90
3053;DHT22;1536;51.098;6.414;2023-05-03T04:58:27;7.90;99.90
3053;DHT22;1536;51.098;6.414;2023-05-03T05:00:54;7.90;99.90
3053;DHT22;1536;51.098;6.414;2023-05-03T05:03:21;7.90;99.90
3053;DHT22;1536;51.098;6.414;2023-05-03T05:05:47;8.00;99.90
3053;DHT22;1536;51.098;6.414;2023-05-03T05:08:15;8.00;99.90
3053;DHT22;1536;51.098;6.414;2023-05-03T05:10:42;8.00;99.90
3053;DHT22;1536;51.098;6.414;2023-05-03T05:13:09;8.00;99.90
3053;DHT22;1536;51.098;6.414;2023-05-03T05:15:36;8.00;99.90
3053;DHT22;1536;51.098;6.414;2023-05-03T05:18:03;8.00;99.90
3053;DHT22;1536;51.098;6.414;2023-05-03T05:20:29;8.00;99.90
3053;DHT22;1536;51.098;6.414;2023-05-03T05:22:56;8.10;99.90
3053;DHT22;1536;51.098;6.414;2023-05-03T05:25:24;8.10;99.90
3053;DHT22;1536;51.098;6.414;2023-05-03T05:27:51;8.10;99.90
3053;DHT22;1536;51.098;6.414;2023-05-03T05:30:18;8.20;99.90
3053;DHT22;1536;51.098;6.414;2023-05-03T05:32:45;8.30;99.90
3053;DHT22;1536;51.098;6.414;2023-05-03T05:35:11;8.30;99.90
3053;DHT22;1536;51.098;6.414;2023-05-03T05:37:42;8.40;99.90
3053;DHT22;1536;51.098;6.414;2023-05-03T05:40:09;8.50;99.90
3053;DHT22;1536;51.098;6.414;2023-05-03T05:42:38;8.50;99.90
3053;DHT22;1536;51.098;6.414;2023-05-03T05:45:05;8.60;99.90
3053;DHT22;1536;51.098;6.414;2023-05-03T05:47:33;8.70;99.90
3053;DHT22;1536;51.098;6.414;2023-05-03T05:49:59;8.80;99.90
3053;DHT22;1536;51.098;6.414;2023-05-03T05:52:26;8.80;99.90
3053;DHT22;1536;51.098;6.414;2023-05-03T05:54:53;8.90;99.90
3053;DHT22;1536;51.098;6.414;2023-05-03T05:57:19;9.00;99.90
3053;DHT22;1536;51.098;6.414;2023-05-03T05:59:47;9.10;99.90
3053;DHT22;1536;51.098;6.414;2023-05-03T06:02:15;9.10;99.90
3053;DHT22;1536;51.098;6.414;2023-05-03T06:04:42;9.20;99.90
3053;DHT22;1536;51.098;6.414;2023-05-03T06:07:09;9.30;99.90
3053;DHT22;1536;51.098;6.414;2023-05-03T06:09:35;9.40;99.90
3053;DHT22;1536;51.098;6.414;2023-05-03T06:12:02;9.50;99.90
3053;DHT22;1536;51.098;6.414;2023-05-03T06:14:29;9.50;99.90
3053;DHT22;1536;51.098;6.414;2023-05-03T06:16:57;9.60;99.90
3053;DHT22;1536;51.098;6.414;2023-05-03T06:19:25;9.70;99.90
3053;DHT22;1536;51.098;6.414;2023-05-03T06:21:51;9.80;99.90
3053;DHT22;1536;51.098;6.414;2023-05-03T06:24:18;9.90;99.90
3053;DHT22;1536;51.098;6.414;2023-05-03T06:26:45;10.00;99.90
3053;DHT22;1536;51.098;6.414;2023-05-03T06:29:12;10.10;99.90
3053;DHT22;1536;51.098;6.414;2023-05-03T06:31:39;10.20;99.90
3053;DHT22;1536;51.098;6.414;2023-05-03T06:34:08;10.30;99.90
3053;DHT22;1536;51.098;6.414;2023-05-03T06:36:35;10.40;99.90
3053;DHT22;1536;51.098;6.414;2023-05-03T06:39:02;10.50;99.90
3053;DHT22;1536;51.098;6.414;2023-05-03T06:41:29;10.60;99.90
3053;DHT22;1536;51.098;6.414;2023-05-03T06:43:57;10.70;99.90
3053;DHT22;1536;51.098;6.414;2023-05-03T06:46:24;10.70;99.90
3053;DHT22;1536;51.098;6.414;2023-05-03T06:48:51;10.80;99.90
3053;DHT22;1536;51.098;6.414;2023-05-03T06:51:21;10.90;99.90
3053;DHT22;1536;51.098;6.414;2023-05-03T06:53:52;11.00;99.90
3053;DHT22;1536;51.098;6.414;2023-05-03T06:56:19;11.10;99.90
3053;DHT22;1536;51.098;6.414;2023-05-03T06:58:45;11.20;99.90
3053;DHT22;1536;51.098;6.414;2023-05-03T07:01:12;11.20;99.90
3053;DHT22;1536;51.098;6.414;2023-05-03T07:03:39;11.30;99.90
3053;DHT22;1536;51.098;6.414;2023-05-03T07:06:06;11.30;99.90
3053;DHT22;1536;51.098;6.414;2023-05-03T07:08:34;11.40;99.90
3053;DHT22;1536;51.098;6.414;2023-05-03T07:11:01;11.50;99.90
3053;DHT22;1536;51.098;6.414;2023-05-03T07:13:28;11.60;99.90
3053;DHT22;1536;51.098;6.414;2023-05-03T07:15:55;11.70;99.90
3053;DHT22;1536;51.098;6.414;2023-05-03T07:18:22;11.70;99.90
3053;DHT22;1536;51.098;6.414;2023-05-03T07:20:48;11.80;99.90
3053;DHT22;1536;51.098;6.414;2023-05-03T07:23:15;11.90;99.90
3053;DHT22;1536;51.098;6.414;2023-05-03T07:25:43;12.00;99.90
3053;DHT22;1536;51.098;6.414;2023-05-03T07:28:11;12.00;99.90
3053;DHT22;1536;51.098;6.414;2023-05-03T07:30:38;12.10;99.90
3053;DHT22;1536;51.098;6.414;2023-05-03T07:33:05;12.10;99.90
3053;DHT22;1536;51.098;6.414;2023-05-03T07:35:32;12.20;99.90
3053;DHT22;1536;51.098;6.414;2023-05-03T07:37:59;12.20;99.90
3053;DHT22;1536;51.098;6.414;2023-05-03T07:40:26;12.20;99.90
3053;DHT22;1536;51.098;6.414;2023-05-03T07:42:58;12.30;99.90
3053;DHT22;1536;51.098;6.414;2023-05-03T07:45:26;12.30;99.90
3053;DHT22;1536;51.098;6.414;2023-05-03T07:47:54;12.40;99.90
3053;DHT22;1536;51.098;6.414;2023-05-03T07:50:21;12.40;99.90
3053;DHT22;1536;51.098;6.414;2023-05-03T07:52:48;12.50;99.90
3053;DHT22;1536;51.098;6.414;2023-05-03T07:55:16;12.50;99.90
3053;DHT22;1536;51.098;6.414;2023-05-03T07:57:43;12.50;99.90
3053;DHT22;1536;51.098;6.414;2023-05-03T08:00:12;12.60;99.90
3053;DHT22;1536;51.098;6.414;2023-05-03T08:02:40;12.70;99.90
3053;DHT22;1536;51.098;6.414;2023-05-03T08:05:08;12.70;99.90
3053;DHT22;1536;51.098;6.414;2023-05-03T08:07:38;12.80;99.70
3053;DHT22;1536;51.098;6.414;2023-05-03T08:10:06;12.80;99.30
3053;DHT22;1536;51.098;6.414;2023-05-03T08:12:32;12.90;99.20
3053;DHT22;1536;51.098;6.414;2023-05-03T08:14:59;13.00;99.20
3053;DHT22;1536;51.098;6.414;2023-05-03T08:17:27;13.10;99.20
3053;DHT22;1536;51.098;6.414;2023-05-03T08:19:54;13.20;99.20
3053;DHT22;1536;51.098;6.414;2023-05-03T08:22:21;13.30;98.70
3053;DHT22;1536;51.098;6.414;2023-05-03T08:24:50;13.40;98.60
3053;DHT22;1536;51.098;6.414;2023-05-03T08:27:19;13.60;98.30
3053;DHT22;1536;51.098;6.414;2023-05-03T08:29:46;13.70;98.30
3053;DHT22;1536;51.098;6.414;2023-05-03T08:32:12;13.90;99.90
3053;DHT22;1536;51.098;6.414;2023-05-03T08:34:43;14.00;99.90
3053;DHT22;1536;51.098;6.414;2023-05-03T08:37:10;14.10;97.10
3053;DHT22;1536;51.098;6.414;2023-05-03T08:39:38;14.20;96.80
3053;DHT22;1536;51.098;6.414;2023-05-03T08:42:06;14.30;96.60
3053;DHT22;1536;51.098;6.414;2023-05-03T08:44:35;14.40;96.00
3053;DHT22;1536;51.098;6.414;2023-05-03T08:47:02;14.50;95.80
3053;DHT22;1536;51.098;6.414;2023-05-03T08:49:30;14.50;95.30
3053;DHT22;1536;51.098;6.414;2023-05-03T08:51:59;14.60;94.50
3053;DHT22;1536;51.098;6.414;2023-05-03T08:56:55;14.70;94.00
3053;DHT22;1536;51.098;6.414;2023-05-03T08:59:21;14.80;94.20
3053;DHT22;1536;51.098;6.414;2023-05-03T09:01:49;14.80;94.20
3053;DHT22;1536;51.098;6.414;2023-05-03T09:04:15;15.00;93.90
3053;DHT22;1536;51.098;6.414;2023-05-03T09:06:42;15.00;93.80
3053;DHT22;1536;51.098;6.414;2023-05-03T09:09:10;15.10;93.30
3053;DHT22;1536;51.098;6.414;2023-05-03T09:11:38;15.10;93.30
3053;DHT22;1536;51.098;6.414;2023-05-03T09:14:10;15.10;93.10
3053;DHT22;1536;51.098;6.414;2023-05-03T09:16:37;15.20;93.30
3053;DHT22;1536;51.098;6.414;2023-05-03T09:19:05;15.20;93.20
3053;DHT22;1536;51.098;6.414;2023-05-03T09:21:34;15.30;92.80
3053;DHT22;1536;51.098;6.414;2023-05-03T09:24:01;15.40;92.70
3053;DHT22;1536;51.098;6.414;2023-05-03T09:26:32;15.40;92.90
3053;DHT22;1536;51.098;6.414;2023-05-03T09:28:59;15.50;92.90
3053;DHT22;1536;51.098;6.414;2023-05-03T09:31:27;15.50;92.60
3053;DHT22;1536;51.098;6.414;2023-05-03T09:33:54;15.60;92.50
3053;DHT22;1536;51.098;6.414;2023-05-03T09:36:24;15.70;92.60
3053;DHT22;1536;51.098;6.414;2023-05-03T09:38:52;15.70;92.20
3053;DHT22;1536;51.098;6.414;2023-05-03T09:41:27;15.80;91.40
3053;DHT22;1536;51.098;6.414;2023-05-03T09:43:56;15.80;90.90
3053;DHT22;1536;51.098;6.414;2023-05-03T09:46:27;15.90;91.00
3053;DHT22;1536;51.098;6.414;2023-05-03T09:48:55;15.90;91.00
3053;DHT22;1536;51.098;6.414;2023-05-03T09:51:23;16.00;90.80
3053;DHT22;1536;51.098;6.414;2023-05-03T09:53:49;16.10;90.90
3053;DHT22;1536;51.098;6.414;2023-05-03T09:56:17;16.20;90.10
3053;DHT22;1536;51.098;6.414;2023-05-03T09:58:51;16.20;89.50
3053;DHT22;1536;51.098;6.414;2023-05-03T10:01:20;16.20;89.60
3053;DHT22;1536;51.098;6.414;2023-05-03T10:03:50;16.30;88.80
3053;DHT22;1536;51.098;6.414;2023-05-03T10:06:23;16.30;88.60
3053;DHT22;1536;51.098;6.414;2023-05-03T10:08:52;16.40;88.30
3053;DHT22;1536;51.098;6.414;2023-05-03T10:11:25;16.40;87.80
3053;DHT22;1536;51.098;6.414;2023-05-03T10:13:52;16.50;88.30
3053;DHT22;1536;51.098;6.414;2023-05-03T10:16:25;16.50;87.90
3053;DHT22;1536;51.098;6.414;2023-05-03T10:18:58;16.50;87.90
3053;DHT22;1536;51.098;6.414;2023-05-03T10:21:34;16.60;87.60
3053;DHT22;1536;51.098;6.414;2023-05-03T10:24:09;16.60;86.90
3053;DHT22;1536;51.098;6.414;2023-05-03T10:26:39;16.60;83.70
3053;DHT22;1536;51.098;6.414;2023-05-03T10:29:44;16.60;83.40
3053;DHT22;1536;51.098;6.414;2023-05-03T10:32:35;16.70;83.20
3053;DHT22;1536;51.098;6.414;2023-05-03T10:35:07;16.70;82.90
3053;DHT22;1536;51.098;6.414;2023-05-03T10:37:35;16.80;83.70
3053;DHT22;1536;51.098;6.414;2023-05-03T10:40:07;16.90;84.40
3053;DHT22;1536;51.098;6.414;2023-05-03T10:42:36;17.00;84.20
3053;DHT22;1536;51.098;6.414;2023-05-03T10:45:03;17.00;81.90
3053;DHT22;1536;51.098;6.414;2023-05-03T10:47:34;17.00;81.80
3053;DHT22;1536;51.098;6.414;2023-05-03T10:50:23;17.00;81.40
3053;DHT22;1536;51.098;6.414;2023-05-03T10:52:50;17.10;80.90
3053;DHT22;1536;51.098;6.414;2023-05-03T10:55:18;17.10;80.30
3053;DHT22;1536;51.098;6.414;2023-05-03T10:57:47;17.20;81.50
3053;DHT22;1536;51.098;6.414;2023-05-03T11:00:18;17.20;81.60
3053;DHT22;1536;51.098;6.414;2023-05-03T11:03:09;17.30;82.40
3053;DHT22;1536;51.098;6.414;2023-05-03T11:05:37;17.30;82.50
3053;DHT22;1536;51.098;6.414;2023-05-03T11:08:09;17.40;81.50
3053;DHT22;1536;51.098;6.414;2023-05-03T11:10:36;17.30;80.40
3053;DHT22;1536;51.098;6.414;2023-05-03T11:13:02;17.40;81.20
3053;DHT22;1536;51.098;6.414;2023-05-03T11:15:29;17.40;79.60
3053;DHT22;1536;51.098;6.414;2023-05-03T11:17:58;17.30;77.90
3053;DHT22;1536;51.098;6.414;2023-05-03T11:20:24;17.30;78.50
3053;DHT22;1536;51.098;6.414;2023-05-03T11:22:51;17.40;80.10
3053;DHT22;1536;51.098;6.414;2023-05-03T11:25:18;17.50;79.30
3053;DHT22;1536;51.098;6.414;2023-05-03T11:27:45;17.50;79.00
3053;DHT22;1536;51.098;6.414;2023-05-03T11:30:12;17.60;79.60
3053;DHT22;1536;51.098;6.414;2023-05-03T11:32:40;17.50;78.20
3053;DHT22;1536;51.098;6.414;2023-05-03T11:35:10;17.50;79.40
3053;DHT22;1536;51.098;6.414;2023-05-03T11:37:38;17.60;79.90
3053;DHT22;1536;51.098;6.414;2023-05-03T11:40:06;17.70;79.90
3053;DHT22;1536;51.098;6.414;2023-05-03T11:42:49;17.70;80.10
3053;DHT22;1536;51.098;6.414;2023-05-03T11:45:16;17.70;79.50
3053;DHT22;1536;51.098;6.414;2023-05-03T11:47:44;17.80;79.80
3053;DHT22;1536;51.098;6.414;2023-05-03T11:50:12;17.80;77.90
3053;DHT22;1536;51.098;6.414;2023-05-03T11:52:40;17.80;77.80
3053;DHT22;1536;51.098;6.414;2023-05-03T11:55:07;17.80;77.20
3053;DHT22;1536;51.098;6.414;2023-05-03T11:57:35;17.80;77.10
3053;DHT22;1536;51.098;6.414;2023-05-03T12:00:09;17.90;78.90
3053;DHT22;1536;51.098;6.414;2023-05-03T12:02:38;17.90;77.20
3053;DHT22;1536;51.098;6.414;2023-05-03T12:05:05;17.90;77.30
3053;DHT22;1536;51.098;6.414;2023-05-03T12:07:35;17.90;78.10
3053;DHT22;1536;51.098;6.414;2023-05-03T12:10:12;18.00;78.70
3053;DHT22;1536;51.098;6.414;2023-05-03T12:12:49;18.00;78.00
3053;DHT22;1536;51.098;6.414;2023-05-03T12:15:26;18.10;77.60
3053;DHT22;1536;51.098;6.414;2023-05-03T12:17:55;18.10;75.50
3053;DHT22;1536;51.098;6.414;2023-05-03T12:20:22;18.10;76.60
3053;DHT22;1536;51.098;6.414;2023-05-03T12:22:52;18.20;77.70
3053;DHT22;1536;51.098;6.414;2023-05-03T12:25:19;18.20;77.10
3053;DHT22;1536;51.098;6.414;2023-05-03T12:27:46;18.20;77.60
3053;DHT22;1536;51.098;6.414;2023-05-03T12:30:13;18.30;77.90
3053;DHT22;1536;51.098;6.414;2023-05-03T12:32:43;18.30;76.20
3053;DHT22;1536;51.098;6.414;2023-05-03T12:35:09;18.30;75.80
3053;DHT22;1536;51.098;6.414;2023-05-03T12:37:37;18.30;75.80
3053;DHT22;1536;51.098;6.414;2023-05-03T12:40:06;18.30;75.50
3053;DHT22;1536;51.098;6.414;2023-05-03T12:42:33;18.30;74.00
3053;DHT22;1536;51.098;6.414;2023-05-03T12:45:00;18.30;75.30
3053;DHT22;1536;51.098;6.414;2023-05-03T12:47:28;18.30;75.20
3053;DHT22;1536;51.098;6.414;2023-05-03T12:49:55;18.30;74.90
3053;DHT22;1536;51.098;6.414;2023-05-03T12:52:22;18.30;73.80
3053;DHT22;1536;51.098;6.414;2023-05-03T12:54:49;18.30;74.80
3053;DHT22;1536;51.098;6.414;2023-05-03T12:57:17;18.30;74.70
3053;DHT22;1536;51.098;6.414;2023-05-03T12:59:44;18.40;74.70
3053;DHT22;1536;51.098;6.414;2023-05-03T13:02:12;18.40;75.50
3053;DHT22;1536;51.098;6.414;2023-05-03T13:04:39;18.30;73.30
3053;DHT22;1536;51.098;6.414;2023-05-03T13:07:07;18.30;74.50
3053;DHT22;1536;51.098;6.414;2023-05-03T13:09:39;18.30;75.00
3053;DHT22;1536;51.098;6.414;2023-05-03T13:12:05;18.40;76.20
3053;DHT22;1536;51.098;6.414;2023-05-03T13:14:33;18.40;74.50
3053;DHT22;1536;51.098;6.414;2023-05-03T13:17:01;18.40;74.50
3053;DHT22;1536;51.098;6.414;2023-05-03T13:19:28;18.30;72.40
3053;DHT22;1536;51.098;6.414;2023-05-03T13:21:54;18.40;72.90
3053;DHT22;1536;51.098;6.414;2023-05-03T13:24:21;18.40;73.30
3053;DHT22;1536;51.098;6.414;2023-05-03T13:26:48;18.40;73.80
3053;DHT22;1536;51.098;6.414;2023-05-03T13:29:14;18.40;73.40
3053;DHT22;1536;51.098;6.414;2023-05-03T13:31:42;18.50;74.00
3053;DHT22;1536;51.098;6.414;2023-05-03T13:34:09;18.50;74.80
3053;DHT22;1536;51.098;6.414;2023-05-03T13:36:36;18.50;73.80
3053;DHT22;1536;51.098;6.414;2023-05-03T13:39:03;18.50;73.60
3053;DHT22;1536;51.098;6.414;2023-05-03T13:41:33;18.60;73.30
3053;DHT22;1536;51.098;6.414;2023-05-03T13:44:01;18.60;75.20
3053;DHT22;1536;51.098;6.414;2023-05-03T13:46:28;18.60;75.00
3053;DHT22;1536;51.098;6.414;2023-05-03T13:48:57;18.60;74.40
3053;DHT22;1536;51.098;6.414;2023-05-03T13:51:23;18.60;74.00
3053;DHT22;1536;51.098;6.414;2023-05-03T13:53:53;18.60;73.10
3053;DHT22;1536;51.098;6.414;2023-05-03T13:56:19;18.60;72.00
3053;DHT22;1536;51.098;6.414;2023-05-03T13:58:46;18.60;71.30
3053;DHT22;1536;51.098;6.414;2023-05-03T14:01:13;18.80;72.70
3053;DHT22;1536;51.098;6.414;2023-05-03T14:03:39;18.80;72.90
3053;DHT22;1536;51.098;6.414;2023-05-03T14:06:08;18.90;73.50
3053;DHT22;1536;51.098;6.414;2023-05-03T14:08:35;18.90;71.30
3053;DHT22;1536;51.098;6.414;2023-05-03T14:11:01;18.90;71.60
3053;DHT22;1536;51.098;6.414;2023-05-03T14:13:28;19.00;72.20
3053;DHT22;1536;51.098;6.414;2023-05-03T14:15:55;19.00;72.40
3053;DHT22;1536;51.098;6.414;2023-05-03T14:18:22;19.10;72.20
3053;DHT22;1536;51.098;6.414;2023-05-03T14:20:48;19.10;70.70
3053;DHT22;1536;51.098;6.414;2023-05-03T14:23:17;19.10;72.40
3053;DHT22;1536;51.098;6.414;2023-05-03T14:25:43;19.20;72.40
3053;DHT22;1536;51.098;6.414;2023-05-03T14:28:10;19.30;72.40
3053;DHT22;1536;51.098;6.414;2023-05-03T14:30:37;19.50;72.60
3053;DHT22;1536;51.098;6.414;2023-05-03T14:33:03;19.60;73.00
3053;DHT22;1536;51.098;6.414;2023-05-03T14:35:31;19.70;71.90
3053;DHT22;1536;51.098;6.414;2023-05-03T14:37:57;19.80;71.70
3053;DHT22;1536;51.098;6.414;2023-05-03T14:40:25;19.90;71.50
3053;DHT22;1536;51.098;6.414;2023-05-03T14:42:52;20.00;71.00
3053;DHT22;1536;51.098;6.414;2023-05-03T14:45:19;20.10;71.00
3053;DHT22;1536;51.098;6.414;2023-05-03T14:47:45;20.10;70.10
3053;DHT22;1536;51.098;6.414;2023-05-03T14:50:12;20.10;70.80
3053;DHT22;1536;51.098;6.414;2023-05-03T14:52:40;20.20;70.20
3053;DHT22;1536;51.098;6.414;2023-05-03T14:55:07;20.10;68.50
3053;DHT22;1536;51.098;6.414;2023-05-03T14:57:35;20.10;68.70
3053;DHT22;1536;51.098;6.414;2023-05-03T15:00:03;20.10;68.80
3053;DHT22;1536;51.098;6.414;2023-05-03T15:02:31;20.20;68.60
3053;DHT22;1536;51.098;6.414;2023-05-03T15:04:58;20.20;69.00
3053;DHT22;1536;51.098;6.414;2023-05-03T15:07:25;20.30;68.90
3053;DHT22;1536;51.098;6.414;2023-05-03T15:09:52;20.40;69.70
3053;DHT22;1536;51.098;6.414;2023-05-03T15:12:18;20.40;68.70
3053;DHT22;1536;51.098;6.414;2023-05-03T15:14:46;20.40;68.10
3053;DHT22;1536;51.098;6.414;2023-05-03T15:17:13;20.40;67.10
3053;DHT22;1536;51.098;6.414;2023-05-03T15:19:40;20.40;67.10
3053;DHT22;1536;51.098;6.414;2023-05-03T15:22:07;20.30;67.10
3053;DHT22;1536;51.098;6.414;2023-05-03T15:24:34;20.30;67.10
3053;DHT22;1536;51.098;6.414;2023-05-03T15:27:01;20.30;67.20
3053;DHT22;1536;51.098;6.414;2023-05-03T15:29:28;20.20;67.10
3053;DHT22;1536;51.098;6.414;2023-05-03T15:31:57;20.20;67.20
3053;DHT22;1536;51.098;6.414;2023-05-03T15:34:24;20.20;68.90
3053;DHT22;1536;51.098;6.414;2023-05-03T15:36:51;20.30;68.00
3053;DHT22;1536;51.098;6.414;2023-05-03T15:39:18;20.30;68.60
3053;DHT22;1536;51.098;6.414;2023-05-03T15:41:44;20.30;67.10
3053;DHT22;1536;51.098;6.414;2023-05-03T15:44:11;20.30;67.80
3053;DHT22;1536;51.098;6.414;2023-05-03T15:46:39;20.30;66.80
3053;DHT22;1536;51.098;6.414;2023-05-03T15:49:08;20.20;67.10
3053;DHT22;1536;51.098;6.414;2023-05-03T15:51:34;20.20;67.40
3053;DHT22;1536;51.098;6.414;2023-05-03T15:54:01;20.10;66.90
3053;DHT22;1536;51.098;6.414;2023-05-03T15:56:28;19.90;66.70
3053;DHT22;1536;51.098;6.414;2023-05-03T15:58:55;19.80;67.30
3053;DHT22;1536;51.098;6.414;2023-05-03T16:01:22;19.80;68.20
3053;DHT22;1536;51.098;6.414;2023-05-03T16:03:49;19.70;67.40
3053;DHT22;1536;51.098;6.414;2023-05-03T16:06:20;19.60;67.90
3053;DHT22;1536;51.098;6.414;2023-05-03T16:08:47;19.50;68.50
3053;DHT22;1536;51.098;6.414;2023-05-03T16:11:14;19.40;68.80
3053;DHT22;1536;51.098;6.414;2023-05-03T16:13:41;19.20;68.40